ROMD(METAR)
04/26 16:00
METAR ROMD 260700Z AUTO 31005KT 270V360 9999 SCT013 26/22 Q1011 RMK
A2987=
戻る
トップページへ戻る
IMOC Co,.Ltd.